| Date | Time | Temp. (oF) | Dew Point (oF) | Rel. Hum. (%) | Press. (in.) | Wind Dir. | Wind Speed (mph) | Hourly Rainfall (in.) |
|
|---|---|---|---|---|---|---|---|---|---|
| 1 | 02/13 | 00:00 | 33 | 31 | 96 | 30.42 | S | 0 | 0.00 |
| 2 | 02/12 | 23:00 | 32 | 30 | 95 | 30.44 | SE | 1 | 0.00 |
| 3 | 02/12 | 22:00 | 32 | 29 | 91 | 30.47 | SSW | 2 | 0.00 |
| 4 | 02/12 | 21:00 | 33 | 27 | 80 | 30.48 | S | 5 | 0.01 |
| 5 | 02/12 | 20:00 | 34 | 22 | 63 | 30.50 | S | 4 | 0.00 |
| 6 | 02/12 | 19:00 | 34 | 19 | 54 | 30.50 | SSE | 9 | 0.00 |
| 7 | 02/12 | 18:00 | 34 | 17 | 50 | 30.51 | S | 6 | 0.00 |
| 8 | 02/12 | 17:00 | 34 | 14 | 45 | 30.51 | SSE | 11 | 0.00 |
| 9 | 02/12 | 16:00 | 36 | 13 | 39 | 30.51 | S | 7 | 0.00 |
| 10 | 02/12 | 15:00 | 36 | 12 | 38 | 30.53 | S | 9 | 0.00 |
| 11 | 02/12 | 14:00 | 35 | 12 | 39 | 30.55 | SE | 8 | 0.00 |
| 12 | 02/12 | 13:00 | 34 | 11 | 39 | 30.60 | SE | 6 | 0.00 |
| 13 | 02/12 | 12:00 | 32 | 11 | 42 | 30.64 | SSE | 7 | 0.00 |
| 14 | 02/12 | 11:00 | 29 | 10 | 45 | 30.67 | E | 4 | 0.00 |
| 15 | 02/12 | 10:00 | 26 | 8 | 47 | 30.69 | ESE | 8 | 0.00 |
| 16 | 02/12 | 09:00 | 24 | 8 | 52 | 30.71 | NNE | 4 | 0.00 |
| 17 | 02/12 | 08:00 | 21 | 7 | 56 | 30.72 | ENE | 5 | 0.00 |
| 18 | 02/12 | 07:00 | 21 | 8 | 59 | 30.72 | ENE | 3 | 0.00 |
| 19 | 02/12 | 06:00 | 21 | 6 | 52 | 30.70 | ENE | 3 | 0.00 |
| 20 | 02/12 | 05:00 | 22 | 6 | 50 | 30.70 | NNE | 9 | 0.00 |
| 21 | 02/12 | 04:00 | 22 | 8 | 55 | 30.72 | NNE | 7 | 0.00 |
| 22 | 02/12 | 03:00 | 23 | 7 | 50 | 30.71 | NE | 4 | 0.00 |
| 23 | 02/12 | 02:00 | 24 | 7 | 49 | 30.70 | NE | 4 | 0.00 |
| 24 | 02/12 | 01:00 | 24 | 10 | 56 | 30.70 | NE | 2 | 0.00 |